Time;durP1;ratioP1;P1;durP2;ratioP2;P2;SDS_P1;SDS_P2;PMS_P1;PMS_P2;Temp;Humidity;BMP_temperature;BMP_pressure;BME280_temperature;BME280_humidity;BME280_pressure;Samples;Min_cycle;Max_cycle;Signal;HPM_P1;HPM_P2
2020/12/17 00:02:01;;;;;;;0.30;0.30;;;5.10;99.90;;;;;;5032826;28;20213;-68
2020/12/17 00:04:27;;;;;;;0.50;0.50;;;5.10;99.90;;;;;;5032929;28;20174;-68
2020/12/17 00:06:54;;;;;;;1.05;0.50;;;5.20;99.90;;;;;;5041667;28;20186;-67
2020/12/17 00:09:20;;;;;;;6.05;2.17;;;5.20;99.90;;;;;;5048804;28;20653;-70
2020/12/17 00:11:46;;;;;;;0.43;0.43;;;5.10;99.90;;;;;;5036782;28;20236;-66
2020/12/17 00:14:12;;;;;;;0.40;0.40;;;5.10;99.90;;;;;;5044676;28;20201;-70
2020/12/17 00:16:38;;;;;;;0.50;0.50;;;5.10;99.90;;;;;;5037292;28;20213;-69
2020/12/17 00:19:05;;;;;;;0.32;0.32;;;5.00;99.90;;;;;;5040485;28;20204;-66
2020/12/17 00:21:30;;;;;;;0.38;0.38;;;5.00;99.90;;;;;;5056119;28;20189;-67
2020/12/17 00:23:56;;;;;;;0.50;0.50;;;5.00;99.90;;;;;;5042561;28;20304;-68
2020/12/17 00:26:25;;;;;;;0.30;0.30;;;5.00;99.90;;;;;;5037101;28;20416;-69
2020/12/17 00:28:54;;;;;;;0.85;0.85;;;5.00;99.90;;;;;;5047658;28;20178;-67
2020/12/17 00:31:20;;;;;;;0.30;0.30;;;5.00;99.90;;;;;;5053593;28;20205;-67
2020/12/17 00:33:47;;;;;;;0.30;0.30;;;5.00;99.90;;;;;;5047400;28;20185;-66
2020/12/17 00:36:25;;;;;;;0.63;0.63;;;5.00;99.90;;;;;;5055433;28;20235;-67
2020/12/17 00:38:51;;;;;;;0.60;0.60;;;5.00;99.90;;;;;;5045468;28;20198;-67
2020/12/17 00:41:17;;;;;;;0.30;0.30;;;4.90;99.90;;;;;;5037579;28;20182;-68
2020/12/17 00:43:44;;;;;;;0.30;0.30;;;4.90;99.90;;;;;;5046172;28;20705;-67
2020/12/17 00:46:14;;;;;;;0.30;0.30;;;4.90;99.90;;;;;;5036564;28;20198;-70
2020/12/17 00:48:40;;;;;;;0.30;0.30;;;5.00;99.90;;;;;;5045491;28;20204;-69
2020/12/17 00:51:06;;;;;;;0.30;0.30;;;4.90;99.90;;;;;;5054800;28;20205;-68
2020/12/17 00:53:32;;;;;;;0.30;0.30;;;4.90;99.90;;;;;;5053526;28;20443;-68
2020/12/17 00:55:58;;;;;;;0.73;0.73;;;4.90;99.90;;;;;;5056499;28;20177;-66
2020/12/17 00:58:24;;;;;;;0.30;0.30;;;4.90;99.90;;;;;;5050070;28;20547;-68
2020/12/17 01:00:49;;;;;;;0.40;0.40;;;4.90;99.90;;;;;;5045856;28;20173;-69
2020/12/17 01:03:15;;;;;;;0.90;0.90;;;4.90;99.90;;;;;;5051879;28;20201;-68
2020/12/17 01:05:40;;;;;;;0.50;0.50;;;4.90;99.90;;;;;;5036303;28;20670;-68
2020/12/17 01:08:06;;;;;;;0.30;0.30;;;4.90;99.90;;;;;;5038648;28;20173;-67
2020/12/17 01:10:33;;;;;;;1.73;1.63;;;4.90;99.90;;;;;;5035736;28;20173;-68
2020/12/17 01:12:58;;;;;;;0.40;0.40;;;4.90;99.90;;;;;;5055968;28;20189;-67
2020/12/17 01:15:24;;;;;;;0.87;0.87;;;4.90;99.90;;;;;;5056145;28;20165;-70
2020/12/17 01:17:51;;;;;;;0.40;0.40;;;4.80;99.90;;;;;;5037094;28;20202;-68
2020/12/17 01:20:17;;;;;;;0.40;0.40;;;4.80;99.90;;;;;;5051493;28;20416;-65
2020/12/17 01:22:43;;;;;;;0.30;0.30;;;4.70;99.90;;;;;;5051379;28;20194;-67
2020/12/17 01:25:09;;;;;;;0.40;0.40;;;4.70;99.90;;;;;;5035800;28;20174;-69
2020/12/17 01:27:34;;;;;;;0.40;0.40;;;4.60;99.90;;;;;;5036174;28;20544;-65
2020/12/17 01:30:00;;;;;;;0.30;0.30;;;4.60;99.90;;;;;;5035462;28;20547;-66
2020/12/17 01:32:26;;;;;;;0.50;0.50;;;4.60;99.90;;;;;;5049468;28;20197;-67
2020/12/17 01:34:51;;;;;;;0.60;0.60;;;4.60;99.90;;;;;;5055727;28;20170;-67
2020/12/17 01:37:17;;;;;;;0.50;0.50;;;4.50;99.90;;;;;;5054049;28;20177;-68
2020/12/17 01:39:43;;;;;;;0.83;0.83;;;4.50;99.90;;;;;;5042575;28;20186;-67
2020/12/17 01:42:09;;;;;;;0.47;0.47;;;4.50;99.90;;;;;;5052486;28;20207;-66
2020/12/17 01:44:39;;;;;;;0.30;0.30;;;4.50;99.90;;;;;;5041841;28;20190;-69
2020/12/17 01:47:05;;;;;;;0.30;0.30;;;4.40;99.90;;;;;;5034242;28;20171;-66
2020/12/17 01:49:32;;;;;;;0.30;0.30;;;4.40;99.90;;;;;;5037383;28;20178;-67
2020/12/17 01:51:58;;;;;;;0.65;0.65;;;4.50;99.90;;;;;;5034886;28;20194;-67
2020/12/17 01:54:23;;;;;;;0.50;0.50;;;4.40;99.90;;;;;;5035825;28;20182;-67
2020/12/17 01:57:00;;;;;;;0.37;0.37;;;4.40;99.90;;;;;;5034152;28;20313;-69
2020/12/17 01:59:28;;;;;;;0.35;0.35;;;4.40;99.90;;;;;;5036268;28;20200;-66
2020/12/17 02:01:54;;;;;;;0.50;0.50;;;4.30;99.90;;;;;;5034740;28;20182;-66
2020/12/17 02:04:24;;;;;;;0.70;0.68;;;4.30;99.90;;;;;;5035371;28;20162;-68
2020/12/17 02:06:50;;;;;;;1.38;1.38;;;4.30;99.90;;;;;;5034801;28;20170;-67
2020/12/17 02:09:19;;;;;;;0.63;0.63;;;4.40;99.90;;;;;;5054323;28;20176;-69
2020/12/17 02:11:58;;;;;;;0.45;0.45;;;4.30;99.90;;;;;;5052725;28;20220;-66
2020/12/17 02:14:24;;;;;;;0.80;0.80;;;4.20;99.90;;;;;;5045522;28;20200;-67
2020/12/17 02:16:51;;;;;;;0.30;0.30;;;4.20;99.90;;;;;;5034820;28;20574;-68
2020/12/17 02:19:16;;;;;;;0.40;0.40;;;4.20;99.90;;;;;;5046529;28;20198;-68
2020/12/17 02:21:42;;;;;;;2.87;2.77;;;4.20;99.90;;;;;;5034552;28;20190;-67
2020/12/17 02:24:08;;;;;;;0.30;0.30;;;4.20;99.90;;;;;;5034594;28;20174;-66
2020/12/17 02:26:34;;;;;;;0.40;0.40;;;4.20;99.90;;;;;;5034608;28;20181;-68
2020/12/17 02:29:00;;;;;;;0.40;0.40;;;4.10;99.90;;;;;;5035721;28;20633;-68
2020/12/17 02:31:27;;;;;;;0.30;0.30;;;4.10;99.90;;;;;;5033167;28;20193;-70
2020/12/17 02:33:53;;;;;;;0.50;0.50;;;4.10;99.90;;;;;;5044553;28;20252;-70
2020/12/17 02:36:19;;;;;;;0.30;0.30;;;4.10;99.90;;;;;;5034468;28;20178;-65
2020/12/17 02:38:46;;;;;;;0.30;0.30;;;4.10;99.90;;;;;;5036184;28;20213;-65
2020/12/17 02:41:12;;;;;;;0.30;0.30;;;4.00;99.90;;;;;;5053948;28;20248;-67
2020/12/17 02:43:41;;;;;;;0.37;0.37;;;4.00;99.90;;;;;;5043010;28;20654;-69
2020/12/17 02:46:07;;;;;;;0.40;0.40;;;4.00;99.90;;;;;;5054224;28;20443;-67
2020/12/17 02:48:32;;;;;;;0.73;0.73;;;3.90;99.90;;;;;;5052485;28;20252;-66
2020/12/17 02:50:58;;;;;;;1.57;1.47;;;3.90;99.90;;;;;;5053888;28;20250;-65
2020/12/17 02:53:24;;;;;;;0.30;0.30;;;3.80;99.90;;;;;;5049750;28;20673;-65
2020/12/17 02:55:50;;;;;;;0.30;0.30;;;3.80;99.90;;;;;;5054231;28;20490;-68
2020/12/17 02:58:16;;;;;;;0.30;0.30;;;3.80;99.90;;;;;;5049991;28;20564;-71
2020/12/17 03:00:42;;;;;;;0.30;0.30;;;3.80;99.90;;;;;;5033755;28;20166;-65
2020/12/17 03:03:08;;;;;;;0.40;0.40;;;3.80;99.90;;;;;;5049723;28;20834;-66
2020/12/17 03:05:34;;;;;;;1.73;1.40;;;3.70;99.90;;;;;;5034042;28;20204;-69
2020/12/17 03:07:59;;;;;;;1.10;1.00;;;3.70;99.90;;;;;;5035114;28;20405;-69
2020/12/17 03:10:25;;;;;;;0.40;0.40;;;3.70;99.90;;;;;;5053695;28;20536;-68
2020/12/17 03:12:51;;;;;;;0.30;0.30;;;3.70;99.90;;;;;;5037595;28;20204;-67
2020/12/17 03:15:17;;;;;;;0.40;0.40;;;3.80;99.90;;;;;;5053859;28;20445;-68
2020/12/17 03:17:43;;;;;;;0.30;0.30;;;3.70;99.90;;;;;;5052497;28;20250;-69
2020/12/17 03:20:11;;;;;;;0.40;0.40;;;3.70;99.90;;;;;;5040563;28;20582;-66
2020/12/17 03:22:38;;;;;;;0.40;0.40;;;3.70;99.90;;;;;;5052507;28;20533;-67
2020/12/17 03:25:05;;;;;;;0.43;0.43;;;3.60;99.90;;;;;;5051824;28;20582;-66
2020/12/17 03:27:32;;;;;;;0.77;0.77;;;3.60;99.90;;;;;;5053564;28;20170;-66
2020/12/17 03:29:59;;;;;;;1.20;1.02;;;3.50;99.90;;;;;;5040273;28;20196;-67
2020/12/17 03:32:25;;;;;;;0.85;0.85;;;3.50;99.90;;;;;;5053082;28;20293;-65
2020/12/17 03:34:50;;;;;;;0.40;0.40;;;3.50;99.90;;;;;;5036692;28;20676;-69
2020/12/17 03:37:16;;;;;;;0.73;0.73;;;3.50;99.90;;;;;;5033534;28;20405;-69
2020/12/17 03:39:42;;;;;;;0.30;0.30;;;3.50;99.90;;;;;;5042188;28;20173;-66
2020/12/17 03:42:07;;;;;;;0.50;0.50;;;3.50;99.90;;;;;;5052910;28;20231;-67
2020/12/17 03:44:33;;;;;;;0.30;0.30;;;3.50;99.90;;;;;;5034858;28;20185;-67
2020/12/17 03:46:59;;;;;;;2.27;1.20;;;3.50;99.90;;;;;;5033543;28;20162;-68
2020/12/17 03:49:24;;;;;;;0.87;0.87;;;3.50;99.90;;;;;;5035985;28;20209;-66
2020/12/17 03:51:50;;;;;;;0.50;0.50;;;3.50;99.90;;;;;;5032786;28;20186;-66
2020/12/17 03:54:16;;;;;;;0.40;0.40;;;3.60;99.90;;;;;;5033165;28;20185;-66
2020/12/17 03:56:41;;;;;;;0.40;0.40;;;3.70;99.90;;;;;;5037028;28;20178;-69
2020/12/17 03:59:07;;;;;;;0.40;0.40;;;3.70;99.90;;;;;;5045280;28;20254;-67
2020/12/17 04:01:33;;;;;;;0.50;0.50;;;3.70;99.90;;;;;;5052852;28;20671;-68
2020/12/17 04:03:58;;;;;;;0.30;0.30;;;3.70;99.90;;;;;;5041696;28;20604;-70
2020/12/17 04:06:24;;;;;;;0.40;0.40;;;3.70;99.90;;;;;;5033376;28;20517;-70
2020/12/17 04:08:49;;;;;;;0.30;0.30;;;3.60;99.90;;;;;;5035903;28;20255;-70
2020/12/17 04:11:15;;;;;;;0.40;0.40;;;3.60;99.90;;;;;;5031477;28;20546;-67
2020/12/17 04:13:41;;;;;;;0.40;0.40;;;3.60;99.90;;;;;;5040541;28;20284;-70
2020/12/17 04:16:06;;;;;;;0.30;0.30;;;3.60;99.90;;;;;;5049399;28;20174;-68
2020/12/17 04:18:32;;;;;;;0.40;0.40;;;3.60;99.90;;;;;;5039694;28;20251;-67
2020/12/17 04:20:58;;;;;;;0.30;0.30;;;3.50;99.90;;;;;;5052574;28;20262;-66
2020/12/17 04:23:23;;;;;;;0.40;0.40;;;3.50;99.90;;;;;;5047769;28;20575;-68
2020/12/17 04:25:49;;;;;;;0.40;0.40;;;3.50;99.90;;;;;;5051735;28;20219;-68
2020/12/17 04:28:15;;;;;;;0.40;0.40;;;3.50;99.90;;;;;;5037222;28;20177;-69
2020/12/17 04:30:41;;;;;;;0.37;0.37;;;3.40;99.90;;;;;;5052498;28;20526;-68
2020/12/17 04:33:06;;;;;;;0.30;0.30;;;3.50;99.90;;;;;;5050007;28;20197;-69
2020/12/17 04:35:32;;;;;;;2.90;2.70;;;3.40;99.90;;;;;;5033117;28;20170;-68
2020/12/17 04:37:58;;;;;;;1.23;1.23;;;3.40;99.90;;;;;;5048773;28;20200;-66
2020/12/17 04:40:24;;;;;;;0.40;0.40;;;3.40;99.90;;;;;;5032505;28;20638;-70
2020/12/17 04:42:50;;;;;;;0.50;0.50;;;3.50;99.90;;;;;;5032829;28;20222;-70
2020/12/17 04:45:16;;;;;;;0.50;0.50;;;3.50;99.90;;;;;;5033269;28;20420;-68
2020/12/17 04:47:45;;;;;;;0.30;0.30;;;3.50;99.90;;;;;;5048332;28;20182;-67
2020/12/17 04:50:14;;;;;;;0.30;0.30;;;3.50;99.90;;;;;;5033842;28;20421;-69
2020/12/17 04:52:42;;;;;;;0.40;0.40;;;3.60;99.90;;;;;;5032474;28;20198;-69
2020/12/17 04:55:09;;;;;;;0.43;0.43;;;3.60;99.90;;;;;;5034511;28;20636;-68
2020/12/17 04:57:50;;;;;;;0.40;0.40;;;3.70;99.90;;;;;;5050928;28;20224;-69
2020/12/17 05:00:16;;;;;;;0.30;0.30;;;3.70;99.90;;;;;;5036024;28;20228;-68
2020/12/17 05:02:47;;;;;;;0.30;0.30;;;3.70;99.90;;;;;;5036024;28;20588;-69
2020/12/17 05:05:13;;;;;;;0.40;0.40;;;3.80;99.90;;;;;;5046107;28;20171;-67
2020/12/17 05:07:40;;;;;;;0.30;0.30;;;3.80;99.90;;;;;;5036128;28;20189;-66
2020/12/17 05:10:05;;;;;;;2.88;2.70;;;3.80;99.90;;;;;;5052551;28;20177;-67
2020/12/17 05:12:31;;;;;;;0.30;0.30;;;3.80;99.90;;;;;;5056143;28;20556;-68
2020/12/17 05:14:57;;;;;;;0.30;0.30;;;3.80;99.90;;;;;;5044350;28;20253;-66
2020/12/17 05:17:23;;;;;;;0.30;0.30;;;3.80;99.90;;;;;;5055895;28;20177;-69
2020/12/17 05:19:50;;;;;;;0.30;0.30;;;3.80;99.90;;;;;;5041161;28;20166;-68
2020/12/17 05:22:17;;;;;;;0.30;0.20;;;3.80;99.90;;;;;;5036050;28;20273;-66
2020/12/17 05:24:44;;;;;;;0.30;0.30;;;3.80;99.90;;;;;;5036519;28;20231;-68
2020/12/17 05:27:10;;;;;;;0.40;0.40;;;3.70;99.90;;;;;;5035984;28;20166;-66
2020/12/17 05:29:40;;;;;;;0.30;0.30;;;3.70;99.90;;;;;;5047588;28;20177;-68
2020/12/17 05:32:07;;;;;;;0.30;0.30;;;3.70;99.90;;;;;;5056088;28;20251;-66
2020/12/17 05:34:34;;;;;;;0.47;0.47;;;3.60;99.90;;;;;;5052760;28;20178;-66
2020/12/17 05:36:59;;;;;;;1.17;1.13;;;3.60;99.90;;;;;;5055632;28;20201;-67
2020/12/17 05:39:25;;;;;;;2.80;2.20;;;3.60;99.90;;;;;;5044356;28;20310;-70
2020/12/17 05:41:53;;;;;;;0.60;0.60;;;3.60;99.90;;;;;;5036125;28;20186;-66
2020/12/17 05:44:29;;;;;;;0.60;0.60;;;3.50;99.90;;;;;;5045504;28;20847;-67
2020/12/17 05:46:56;;;;;;;0.40;0.40;;;3.60;99.90;;;;;;5035455;28;20181;-69
2020/12/17 05:49:30;;;;;;;0.40;0.40;;;3.90;99.90;;;;;;5055400;28;20165;-69
2020/12/17 05:52:21;;;;;;;0.40;0.40;;;4.10;99.90;;;;;;5054277;28;20211;-67
2020/12/17 05:54:50;;;;;;;0.35;0.35;;;4.30;99.90;;;;;;5041733;28;20224;-68
2020/12/17 05:57:15;;;;;;;0.30;0.30;;;4.60;99.90;;;;;;5036986;28;20193;-69
2020/12/17 05:59:53;;;;;;;0.43;0.43;;;4.60;99.90;;;;;;5036770;28;20213;-68
2020/12/17 06:02:29;;;;;;;0.30;0.30;;;4.60;99.90;;;;;;5045128;28;20278;-67
2020/12/17 06:05:16;;;;;;;1.15;0.93;;;4.50;99.90;;;;;;5034917;28;20268;-68
2020/12/17 06:07:47;;;;;;;2.00;1.90;;;4.40;99.90;;;;;;5038490;28;20698;-67
2020/12/17 06:10:23;;;;;;;0.30;0.30;;;4.40;99.90;;;;;;5034871;28;20166;-67
2020/12/17 06:12:54;;;;;;;0.40;0.40;;;4.40;99.90;;;;;;5039519;28;20710;-70
2020/12/17 06:15:31;;;;;;;0.40;0.40;;;4.40;99.90;;;;;;5039358;28;20178;-68
2020/12/17 06:17:59;;;;;;;0.50;0.50;;;4.30;99.90;;;;;;5041977;28;20257;-68
2020/12/17 06:20:26;;;;;;;0.30;0.30;;;4.30;99.90;;;;;;5054328;28;20200;-68
2020/12/17 06:22:56;;;;;;;0.82;0.82;;;4.30;99.90;;;;;;5035916;28;20186;-67
2020/12/17 06:25:23;;;;;;;0.40;0.40;;;4.30;99.90;;;;;;5034651;28;20165;-68
2020/12/17 06:27:50;;;;;;;0.30;0.30;;;4.10;99.90;;;;;;5035745;28;20631;-69
2020/12/17 06:30:43;;;;;;;0.38;0.38;;;4.10;99.90;;;;;;5034210;28;20245;-67
2020/12/17 06:33:12;;;;;;;0.30;0.30;;;4.00;99.90;;;;;;5022301;28;20225;-67
2020/12/17 06:35:57;;;;;;;1.10;0.98;;;3.90;99.90;;;;;;5034375;28;20167;-67
2020/12/17 06:38:26;;;;;;;0.30;0.30;;;3.80;99.90;;;;;;5043293;28;20197;-70
2020/12/17 06:40:52;;;;;;;0.30;0.30;;;3.70;99.90;;;;;;5054236;28;20176;-68
2020/12/17 06:43:36;;;;;;;0.68;0.68;;;3.70;99.90;;;;;;5053274;28;20200;-67
2020/12/17 06:46:03;;;;;;;0.77;0.45;;;3.80;99.90;;;;;;5054089;28;20173;-68
2020/12/17 06:48:40;;;;;;;1.05;1.05;;;3.80;99.90;;;;;;5052484;28;20260;-68
2020/12/17 06:51:29;;;;;;;0.40;0.40;;;3.80;99.90;;;;;;5051654;28;20191;-66
2020/12/17 06:53:55;;;;;;;0.35;0.35;;;3.90;99.90;;;;;;5037842;28;20222;-68
2020/12/17 06:56:21;;;;;;;0.40;0.40;;;3.90;99.90;;;;;;5032244;28;20197;-69
2020/12/17 06:58:47;;;;;;;0.40;0.40;;;4.00;99.90;;;;;;5034130;28;20604;-69
2020/12/17 07:01:26;;;;;;;1.17;1.17;;;4.10;99.90;;;;;;5031636;28;20420;-68
2020/12/17 07:03:52;;;;;;;0.30;0.30;;;4.10;99.90;;;;;;5044926;28;20177;-70
2020/12/17 07:06:23;;;;;;;0.30;0.30;;;4.20;99.90;;;;;;5049168;28;20204;-70
2020/12/17 07:08:54;;;;;;;0.57;0.57;;;4.20;99.90;;;;;;5044070;28;20323;-71
2020/12/17 07:11:34;;;;;;;0.82;0.82;;;4.30;99.90;;;;;;5051362;28;20220;-69
2020/12/17 07:14:00;;;;;;;0.40;0.40;;;4.40;99.90;;;;;;5021212;28;20178;-66
2020/12/17 07:16:27;;;;;;;0.30;0.30;;;4.60;99.90;;;;;;5027772;28;20353;-70
2020/12/17 07:19:12;;;;;;;0.30;0.30;;;4.90;99.90;;;;;;5043043;28;20209;-67
2020/12/17 07:21:40;;;;;;;0.60;0.60;;;5.00;99.90;;;;;;5051743;28;20292;-65
2020/12/17 07:24:06;;;;;;;0.30;0.30;;;5.20;99.90;;;;;;5040123;28;20186;-67
2020/12/17 07:26:32;;;;;;;0.30;0.30;;;5.40;99.90;;;;;;5036767;28;20542;-67
2020/12/17 07:28:58;;;;;;;0.47;0.47;;;5.60;99.90;;;;;;5044492;28;20207;-68
2020/12/17 07:31:25;;;;;;;0.30;0.30;;;5.70;99.90;;;;;;5052940;28;20723;-67
2020/12/17 07:33:51;;;;;;;2.83;2.72;;;5.90;99.90;;;;;;5042789;28;20208;-68
2020/12/17 07:36:17;;;;;;;0.30;0.30;;;6.10;99.90;;;;;;5046976;28;20683;-70
2020/12/17 07:38:43;;;;;;;0.30;0.30;;;6.30;99.90;;;;;;5051142;28;20877;-70
2020/12/17 07:41:23;;;;;;;0.30;0.30;;;6.40;99.90;;;;;;5046212;28;20228;-69
2020/12/17 07:43:49;;;;;;;0.30;0.30;;;6.60;99.90;;;;;;5049378;28;20178;-65
2020/12/17 07:46:36;;;;;;;0.30;0.30;;;6.70;99.90;;;;;;5032880;28;20178;-65
2020/12/17 07:49:18;;;;;;;0.40;0.40;;;6.80;99.90;;;;;;5041716;28;20206;-67
2020/12/17 07:51:44;;;;;;;0.40;0.40;;;6.90;99.90;;;;;;5032630;28;20190;-69
2020/12/17 07:54:09;;;;;;;0.40;0.40;;;7.00;99.90;;;;;;5033017;28;20193;-68
2020/12/17 07:56:35;;;;;;;0.50;0.50;;;7.00;99.90;;;;;;5039945;28;20177;-73
2020/12/17 07:59:04;;;;;;;0.30;0.30;;;7.00;99.90;;;;;;5048306;28;20224;-69
2020/12/17 08:01:30;;;;;;;0.32;0.32;;;6.80;99.90;;;;;;5035871;28;20195;-71
2020/12/17 08:03:56;;;;;;;0.30;0.30;;;6.80;99.90;;;;;;5047035;28;20275;-69
2020/12/17 08:06:23;;;;;;;0.40;0.40;;;6.80;99.90;;;;;;5050332;28;20248;-67
2020/12/17 08:09:07;;;;;;;0.30;0.30;;;6.80;99.90;;;;;;5047304;28;20584;-66
2020/12/17 08:11:33;;;;;;;0.40;0.40;;;7.10;99.90;;;;;;5034193;28;20202;-68
2020/12/17 08:14:07;;;;;;;0.30;0.30;;;7.20;99.90;;;;;;5045915;28;20183;-67
2020/12/17 08:16:33;;;;;;;0.30;0.30;;;7.60;99.90;;;;;;5043677;28;20266;-67
2020/12/17 08:19:00;;;;;;;0.35;0.35;;;7.80;99.90;;;;;;5032753;28;20560;-68
2020/12/17 08:21:27;;;;;;;0.30;0.30;;;8.20;99.90;;;;;;5039389;28;20635;-66
2020/12/17 08:23:53;;;;;;;0.50;0.50;;;8.40;99.90;;;;;;5041731;28;20300;-67
2020/12/17 08:26:25;;;;;;;0.30;0.30;;;8.50;99.90;;;;;;5013142;28;20576;-66
2020/12/17 08:28:52;;;;;;;0.30;0.30;;;8.80;99.90;;;;;;5016602;28;20233;-65
2020/12/17 08:31:28;;;;;;;0.40;0.40;;;9.10;99.90;;;;;;5051689;28;20198;-69
2020/12/17 08:33:56;;;;;;;0.30;0.20;;;9.20;99.90;;;;;;5036810;28;20254;-68
2020/12/17 08:36:24;;;;;;;1.25;1.20;;;9.20;99.90;;;;;;5037798;28;20201;-67
2020/12/17 08:38:54;;;;;;;0.30;0.30;;;9.10;99.90;;;;;;5037625;28;20271;-66
2020/12/17 08:41:25;;;;;;;0.30;0.30;;;9.00;99.90;;;;;;5037463;28;20210;-66
2020/12/17 08:43:54;;;;;;;0.88;0.88;;;8.90;99.90;;;;;;5040570;28;20179;-67
2020/12/17 08:46:20;;;;;;;0.30;0.30;;;8.90;99.90;;;;;;5055911;28;20254;-68
2020/12/17 08:48:46;;;;;;;0.40;0.40;;;8.80;99.90;;;;;;5056717;28;20170;-65
2020/12/17 08:51:17;;;;;;;0.30;0.30;;;8.70;99.90;;;;;;5045855;28;20549;-69
2020/12/17 08:53:44;;;;;;;0.30;0.30;;;8.60;99.90;;;;;;5056108;28;20222;-69
2020/12/17 08:56:18;;;;;;;0.40;0.40;;;8.60;99.90;;;;;;5051008;28;20180;-71
2020/12/17 08:59:03;;;;;;;0.30;0.30;;;8.50;99.90;;;;;;5055364;28;20212;-68
2020/12/17 09:01:38;;;;;;;0.57;0.57;;;8.50;99.90;;;;;;5038726;28;20278;-68
2020/12/17 09:04:07;;;;;;;0.30;0.20;;;8.50;99.90;;;;;;5036436;28;20520;-66
2020/12/17 09:06:34;;;;;;;0.40;0.40;;;8.50;99.90;;;;;;5037972;28;20174;-66
2020/12/17 09:09:16;;;;;;;0.30;0.30;;;8.60;99.90;;;;;;5035984;28;20254;-68
2020/12/17 09:11:46;;;;;;;0.47;0.47;;;8.70;99.90;;;;;;5044549;28;20202;-67
2020/12/17 09:14:19;;;;;;;0.30;0.30;;;8.70;99.90;;;;;;5036230;28;20685;-68
2020/12/17 09:16:46;;;;;;;0.30;0.30;;;8.80;99.90;;;;;;5039299;28;20273;-66
2020/12/17 09:19:12;;;;;;;0.30;0.30;;;8.80;99.90;;;;;;5035602;28;20208;-66
2020/12/17 09:22:07;;;;;;;2.00;0.80;;;8.90;99.90;;;;;;5035866;28;20201;-66
2020/12/17 09:24:34;;;;;;;0.30;0.30;;;8.80;99.90;;;;;;5027010;28;20192;-66
2020/12/17 09:27:21;;;;;;;0.30;0.30;;;8.80;99.90;;;;;;5055649;28;20165;-70
2020/12/17 09:30:17;;;;;;;1.23;1.13;;;8.70;99.90;;;;;;5042460;28;20165;-67
2020/12/17 09:33:01;;;;;;;0.30;0.30;;;8.80;99.90;;;;;;5039358;28;20220;-66
2020/12/17 09:35:32;;;;;;;0.50;0.50;;;8.80;99.90;;;;;;5043066;28;20169;-67
2020/12/17 09:38:05;;;;;;;0.40;0.40;;;8.90;99.90;;;;;;5055142;28;20197;-67
2020/12/17 09:40:32;;;;;;;0.30;0.30;;;9.50;99.90;;;;;;5053587;28;20207;-67
2020/12/17 09:43:15;;;;;;;0.30;0.30;;;10.20;99.90;;;;;;5055403;28;20735;-67
2020/12/17 09:45:45;;;;;;;0.30;0.30;;;10.70;99.90;;;;;;5041453;28;20190;-65
2020/12/17 09:48:28;;;;;;;0.40;0.40;;;11.20;99.90;;;;;;5035358;28;20652;-67
2020/12/17 09:50:55;;;;;;;0.30;0.30;;;11.90;99.90;;;;;;5034933;28;20219;-66
2020/12/17 09:53:22;;;;;;;0.43;0.43;;;12.40;99.90;;;;;;5034864;28;20933;-66
2020/12/17 09:55:48;;;;;;;0.57;0.57;;;12.90;99.90;;;;;;5035182;28;20415;-67
2020/12/17 09:58:13;;;;;;;0.40;0.40;;;13.30;99.90;;;;;;5046963;28;20468;-67
2020/12/17 10:00:40;;;;;;;0.40;0.40;;;13.40;99.90;;;;;;5034704;28;20428;-69
2020/12/17 10:03:05;;;;;;;2.33;0.53;;;13.60;99.90;;;;;;5053188;28;20208;-67
2020/12/17 10:05:31;;;;;;;0.40;0.37;;;13.80;99.40;;;;;;5054458;28;20428;-67
2020/12/17 10:07:56;;;;;;;0.30;0.20;;;14.00;99.00;;;;;;5041388;28;20181;-64
2020/12/17 10:10:22;;;;;;;0.40;0.40;;;14.20;98.60;;;;;;5040723;28;20208;-63
2020/12/17 10:12:48;;;;;;;0.30;0.30;;;14.10;98.10;;;;;;5039290;28;20259;-66
2020/12/17 10:15:13;;;;;;;0.40;0.40;;;14.00;98.30;;;;;;5048157;28;20177;-65
2020/12/17 10:17:39;;;;;;;0.30;0.30;;;14.00;98.10;;;;;;5054559;28;20264;-67
2020/12/17 10:20:06;;;;;;;0.43;0.43;;;14.10;98.20;;;;;;5048239;28;20583;-67
2020/12/17 10:22:32;;;;;;;0.30;0.30;;;14.10;98.50;;;;;;5034541;28;20192;-66
2020/12/17 10:24:58;;;;;;;0.30;0.27;;;13.90;98.40;;;;;;5034334;28;20495;-65
2020/12/17 10:27:23;;;;;;;0.50;0.50;;;13.60;98.40;;;;;;5034373;28;20177;-65
2020/12/17 10:29:49;;;;;;;1.03;1.03;;;13.60;98.80;;;;;;5036202;28;20189;-65
2020/12/17 10:32:18;;;;;;;0.40;0.40;;;13.50;98.90;;;;;;5054364;28;20200;-65
2020/12/17 10:34:44;;;;;;;0.30;0.30;;;13.30;98.80;;;;;;5054436;28;20219;-65
2020/12/17 10:37:10;;;;;;;1.90;1.00;;;13.00;98.90;;;;;;5054379;28;20501;-65
2020/12/17 10:39:35;;;;;;;0.30;0.30;;;12.70;99.40;;;;;;5034167;28;20475;-65
2020/12/17 10:42:02;;;;;;;0.40;0.40;;;12.50;99.90;;;;;;5033981;28;20435;-65
2020/12/17 10:44:28;;;;;;;0.30;0.30;;;12.30;99.90;;;;;;5034325;28;20176;-64
2020/12/17 10:46:54;;;;;;;0.30;0.20;;;12.20;99.90;;;;;;5043704;28;20186;-65
2020/12/17 10:49:19;;;;;;;0.30;0.30;;;12.10;99.90;;;;;;5054244;28;20254;-65
2020/12/17 10:51:45;;;;;;;0.47;0.47;;;12.00;99.90;;;;;;5052551;28;20223;-64
2020/12/17 10:54:10;;;;;;;0.30;0.30;;;12.10;99.90;;;;;;5052613;28;20193;-68
2020/12/17 10:56:36;;;;;;;0.30;0.30;;;12.40;99.90;;;;;;5046240;28;20191;-65
2020/12/17 10:59:02;;;;;;;0.30;0.30;;;12.60;99.90;;;;;;5049199;28;20289;-65
2020/12/17 11:01:28;;;;;;;0.30;0.30;;;12.80;99.90;;;;;;5053321;28;20433;-64
2020/12/17 11:03:53;;;;;;;0.30;0.30;;;13.00;99.90;;;;;;5054031;28;20797;-65
2020/12/17 11:06:23;;;;;;;0.33;0.33;;;13.10;99.90;;;;;;5054792;28;20643;-64
2020/12/17 11:08:49;;;;;;;0.40;0.37;;;13.00;99.90;;;;;;5041248;28;20180;-65
2020/12/17 11:11:15;;;;;;;0.30;0.30;;;12.80;99.90;;;;;;5033244;28;20838;-66
2020/12/17 11:13:41;;;;;;;0.40;0.40;;;12.70;99.90;;;;;;5033965;28;20486;-65
2020/12/17 11:16:07;;;;;;;0.30;0.30;;;12.50;99.90;;;;;;5034081;28;20436;-65
2020/12/17 11:18:33;;;;;;;0.40;0.40;;;12.30;99.90;;;;;;5045057;28;20452;-65
2020/12/17 11:20:59;;;;;;;0.30;0.30;;;12.10;99.90;;;;;;5053226;28;20652;-65
2020/12/17 11:23:24;;;;;;;0.43;0.43;;;12.00;99.90;;;;;;5053414;28;20423;-65
2020/12/17 11:25:50;;;;;;;0.30;0.30;;;11.90;99.90;;;;;;5053431;28;20182;-65
2020/12/17 11:28:16;;;;;;;0.30;0.30;;;11.90;99.90;;;;;;5045325;28;20187;-64
2020/12/17 11:30:41;;;;;;;0.40;0.40;;;11.70;99.90;;;;;;5040130;28;20555;-66
2020/12/17 11:33:07;;;;;;;0.30;0.30;;;11.60;99.90;;;;;;5053245;28;20193;-67
2020/12/17 11:35:33;;;;;;;0.30;0.30;;;11.50;99.90;;;;;;5051687;28;20173;-65
2020/12/17 11:37:59;;;;;;;0.40;0.40;;;11.50;99.90;;;;;;5047332;28;20286;-66
2020/12/17 11:40:25;;;;;;;0.30;0.30;;;11.50;99.90;;;;;;5036506;28;20252;-65
2020/12/17 11:42:52;;;;;;;0.30;0.30;;;11.50;99.90;;;;;;5052958;28;20188;-64
2020/12/17 11:45:17;;;;;;;0.30;0.30;;;11.50;99.90;;;;;;5049149;28;20533;-65
2020/12/17 11:47:44;;;;;;;0.77;0.77;;;11.50;99.90;;;;;;5049031;28;20183;-65
2020/12/17 11:50:10;;;;;;;0.47;0.47;;;11.50;99.90;;;;;;5050542;28;20459;-65
2020/12/17 11:52:37;;;;;;;0.30;0.20;;;11.50;99.90;;;;;;5033061;28;20570;-69
2020/12/17 11:55:05;;;;;;;0.57;0.57;;;11.50;99.90;;;;;;5033534;28;20570;-68
2020/12/17 11:57:31;;;;;;;1.20;0.68;;;11.50;99.90;;;;;;5038717;28;20179;-71
2020/12/17 11:59:57;;;;;;;0.50;0.50;;;11.50;99.90;;;;;;5032241;28;20572;-70
2020/12/17 12:02:23;;;;;;;0.30;0.30;;;11.60;99.90;;;;;;5051767;28;20194;-69
2020/12/17 12:04:48;;;;;;;0.30;0.30;;;11.70;99.90;;;;;;5056979;28;20168;-70
2020/12/17 12:07:14;;;;;;;0.30;0.20;;;11.80;99.90;;;;;;5042521;28;20333;-70
2020/12/17 12:09:39;;;;;;;0.30;0.30;;;11.80;99.90;;;;;;5056597;28;20647;-72
2020/12/17 12:12:05;;;;;;;0.30;0.30;;;11.90;99.90;;;;;;5041248;28;20198;-71
2020/12/17 12:14:31;;;;;;;0.30;0.30;;;11.90;99.90;;;;;;5036630;28;20180;-69
2020/12/17 12:16:57;;;;;;;0.30;0.30;;;11.90;99.90;;;;;;5054299;28;20177;-74
2020/12/17 12:19:23;;;;;;;2.03;1.50;;;11.90;99.90;;;;;;5038063;28;20474;-73
2020/12/17 12:21:50;;;;;;;0.30;0.30;;;11.90;99.90;;;;;;5052212;28;20193;-71
2020/12/17 12:24:16;;;;;;;0.90;0.90;;;11.90;99.90;;;;;;5041058;28;20175;-71
2020/12/17 12:26:42;;;;;;;0.40;0.40;;;11.80;99.90;;;;;;5044870;28;20219;-73
2020/12/17 12:29:08;;;;;;;0.30;0.20;;;11.80;99.90;;;;;;5051984;28;20227;-70
2020/12/17 12:31:33;;;;;;;0.30;0.20;;;11.70;99.90;;;;;;5035740;28;20276;-79
2020/12/17 12:33:59;;;;;;;0.40;0.40;;;11.60;99.90;;;;;;5031538;28;20183;-73
2020/12/17 12:36:25;;;;;;;0.30;0.30;;;11.60;99.90;;;;;;5034587;28;20425;-70
2020/12/17 12:38:50;;;;;;;0.40;0.40;;;11.50;99.90;;;;;;5055371;28;20560;-70
2020/12/17 12:41:20;;;;;;;0.30;0.20;;;11.60;99.90;;;;;;5047774;28;20599;-67
2020/12/17 12:43:46;;;;;;;2.05;1.63;;;11.60;99.90;;;;;;5036690;28;20166;-67
2020/12/17 12:46:11;;;;;;;0.30;0.30;;;11.40;99.90;;;;;;5039140;28;20170;-67
2020/12/17 12:48:37;;;;;;;0.67;0.50;;;11.50;99.90;;;;;;5038331;28;20169;-67
2020/12/17 12:51:04;;;;;;;0.97;0.97;;;11.50;99.90;;;;;;5055923;28;20170;-68
2020/12/17 12:53:31;;;;;;;0.40;0.40;;;11.50;99.90;;;;;;5055623;28;20185;-67
2020/12/17 12:55:57;;;;;;;0.30;0.20;;;11.50;99.90;;;;;;5047557;28;20647;-70
2020/12/17 12:58:22;;;;;;;0.30;0.30;;;11.40;99.90;;;;;;5044590;28;20205;-66
2020/12/17 13:00:51;;;;;;;0.30;0.30;;;11.30;99.90;;;;;;5039715;28;20398;-69